Time;durP1;ratioP1;P1;durP2;ratioP2;P2;SDS_P1;SDS_P2;PMS_P1;PMS_P2;Temp;Humidity;BMP_temperature;BMP_pressure;BME280_temperature;BME280_humidity;BME280_pressure;Samples;Min_cycle;Max_cycle;Signal;HPM_P1;HPM_P2
2022/11/02 00:00:16;;;;;;;8.60;2.60;;;13.70;99.90;;;;;;5070273;28;20422;-37
2022/11/02 00:02:41;;;;;;;4.37;1.70;;;13.60;99.90;;;;;;5083884;28;20504;-39
2022/11/02 00:05:10;;;;;;;5.43;2.10;;;13.70;99.90;;;;;;5029470;28;1118411;-39
2022/11/02 00:07:36;;;;;;;4.50;1.43;;;13.70;99.90;;;;;;5069237;28;20189;-39
2022/11/02 00:10:01;;;;;;;7.03;2.07;;;13.70;99.90;;;;;;5083555;28;20487;-36
2022/11/02 00:12:27;;;;;;;6.90;1.87;;;13.70;99.90;;;;;;5074829;28;20285;-38
2022/11/02 00:14:53;;;;;;;4.73;1.87;;;13.70;99.90;;;;;;5072884;28;20259;-39
2022/11/02 00:17:18;;;;;;;5.17;2.20;;;13.70;99.90;;;;;;5086828;28;20730;-40
2022/11/02 00:19:44;;;;;;;7.20;2.40;;;13.70;99.90;;;;;;5073070;28;20196;-36
2022/11/02 00:22:09;;;;;;;7.30;1.73;;;13.70;99.90;;;;;;5073196;28;20185;-36
2022/11/02 00:24:35;;;;;;;10.87;1.90;;;13.70;99.90;;;;;;5079844;28;20188;-36
2022/11/02 00:27:01;;;;;;;8.67;2.27;;;13.70;99.90;;;;;;5079324;28;20193;-36
2022/11/02 00:29:27;;;;;;;7.60;1.90;;;13.70;99.90;;;;;;5072976;28;20203;-36
2022/11/02 00:31:52;;;;;;;10.30;2.30;;;13.80;99.90;;;;;;5070581;28;20193;-36
2022/11/02 00:34:18;;;;;;;6.57;2.57;;;13.80;99.90;;;;;;5080761;28;20192;-36
2022/11/02 00:36:44;;;;;;;6.80;1.60;;;13.90;99.90;;;;;;5091985;28;20220;-37
2022/11/02 00:39:09;;;;;;;5.37;1.77;;;14.00;99.90;;;;;;5092175;28;20195;-36
2022/11/02 00:41:35;;;;;;;7.23;1.60;;;14.00;99.90;;;;;;5093029;28;20715;-40
2022/11/02 00:44:01;;;;;;;2.43;1.27;;;14.10;99.90;;;;;;5093246;28;20181;-39
2022/11/02 00:46:26;;;;;;;6.77;1.47;;;14.10;99.90;;;;;;5093202;28;20217;-36
2022/11/02 00:48:52;;;;;;;6.03;1.87;;;14.10;99.90;;;;;;5092768;28;20192;-39
2022/11/02 00:51:17;;;;;;;7.17;2.10;;;14.10;99.90;;;;;;5092886;28;20189;-39
2022/11/02 00:53:43;;;;;;;7.97;1.73;;;14.10;99.90;;;;;;5092977;28;20196;-36
2022/11/02 00:56:09;;;;;;;5.53;2.53;;;14.10;99.90;;;;;;5092474;28;20690;-36
2022/11/02 00:58:34;;;;;;;6.20;1.60;;;14.10;99.90;;;;;;5092634;28;20185;-37
2022/11/02 01:01:04;;;;;;;3.13;1.10;;;14.10;99.90;;;;;;5092892;28;20184;-39
2022/11/02 01:03:30;;;;;;;4.07;1.70;;;14.10;99.90;;;;;;5092715;28;20188;-39
2022/11/02 01:05:55;;;;;;;6.57;1.60;;;14.10;99.90;;;;;;5091195;28;20446;-39
2022/11/02 01:08:21;;;;;;;5.77;2.43;;;14.10;99.90;;;;;;5091489;28;20195;-36
2022/11/02 01:10:47;;;;;;;5.63;1.73;;;14.10;99.90;;;;;;5092826;28;20188;-39
2022/11/02 01:13:13;;;;;;;5.07;1.80;;;14.10;99.90;;;;;;5092356;28;21109;-37
2022/11/02 01:15:38;;;;;;;7.20;2.33;;;14.10;99.90;;;;;;5092640;28;20590;-37
2022/11/02 01:18:04;;;;;;;2.30;1.10;;;14.10;99.90;;;;;;5084642;28;20245;-37
2022/11/02 01:20:30;;;;;;;6.00;1.60;;;14.10;99.90;;;;;;5070607;28;20213;-37
2022/11/02 01:22:58;;;;;;;4.07;1.73;;;14.10;99.90;;;;;;5071897;28;20192;-36
2022/11/02 01:25:24;;;;;;;5.50;1.60;;;14.00;99.90;;;;;;5084088;28;20781;-39
2022/11/02 01:27:49;;;;;;;6.80;2.27;;;14.10;99.90;;;;;;5070737;28;20451;-39
2022/11/02 01:30:15;;;;;;;8.37;1.70;;;14.20;99.90;;;;;;5071830;28;20501;-39
2022/11/02 01:32:41;;;;;;;10.30;2.17;;;14.20;99.90;;;;;;5070410;28;20181;-39
2022/11/02 01:35:07;;;;;;;5.87;1.83;;;14.20;99.90;;;;;;5087392;28;20242;-39
2022/11/02 01:37:34;;;;;;;7.53;2.70;;;14.20;99.90;;;;;;5076810;28;20284;-39
2022/11/02 01:39:59;;;;;;;5.80;1.70;;;14.20;99.90;;;;;;5071702;28;20420;-37
2022/11/02 01:42:26;;;;;;;5.90;1.93;;;14.20;99.90;;;;;;5072044;28;20498;-39
2022/11/02 01:44:52;;;;;;;6.73;1.63;;;14.20;99.90;;;;;;5071886;28;20189;-39
2022/11/02 01:47:24;;;;;;;4.60;1.73;;;14.20;99.90;;;;;;5072103;28;20411;-39
2022/11/02 01:49:55;;;;;;;2.93;1.27;;;14.20;99.90;;;;;;5071382;28;20184;-37
2022/11/02 01:52:30;;;;;;;6.00;2.00;;;14.20;99.90;;;;;;5071813;28;20412;-37
2022/11/02 01:55:05;;;;;;;5.90;2.50;;;14.10;99.90;;;;;;5071965;28;20776;-39
2022/11/02 01:57:34;;;;;;;5.03;1.63;;;14.20;99.90;;;;;;5071656;28;20501;-39
2022/11/02 02:00:05;;;;;;;5.57;1.97;;;14.10;99.90;;;;;;5071446;28;20442;-39
2022/11/02 02:02:33;;;;;;;4.90;1.67;;;14.10;99.90;;;;;;5071473;28;20408;-39
2022/11/02 02:05:04;;;;;;;6.53;2.30;;;14.10;99.90;;;;;;5071645;28;20465;-40
2022/11/02 02:07:32;;;;;;;5.83;1.40;;;14.10;99.90;;;;;;5071536;28;20423;-39
2022/11/02 02:09:59;;;;;;;8.47;1.63;;;14.10;99.90;;;;;;5071315;28;20420;-39
2022/11/02 02:12:26;;;;;;;6.53;1.57;;;14.20;99.90;;;;;;5071219;28;20416;-36
2022/11/02 02:14:52;;;;;;;11.33;2.30;;;14.20;99.90;;;;;;5071176;28;20439;-36
2022/11/02 02:17:36;;;;;;;7.20;2.03;;;14.20;99.90;;;;;;5085509;28;20537;-39
2022/11/02 02:20:44;;;;;;;7.90;2.00;;;14.20;99.90;;;;;;5089857;28;20893;-37
2022/11/02 02:23:31;;;;;;;5.37;1.70;;;14.30;99.90;;;;;;5070952;28;20463;-39
2022/11/02 02:26:25;;;;;;;5.97;2.30;;;14.30;99.90;;;;;;5091487;28;20503;-39
2022/11/02 02:29:01;;;;;;;8.23;1.77;;;14.30;99.90;;;;;;5091139;28;20493;-39
2022/11/02 02:31:34;;;;;;;4.90;1.70;;;14.30;99.90;;;;;;5091176;28;20450;-39
2022/11/02 02:34:09;;;;;;;7.40;2.03;;;14.20;99.90;;;;;;5089391;28;20742;-39
2022/11/02 02:37:00;;;;;;;5.10;1.73;;;14.20;99.90;;;;;;5090540;28;20941;-39
2022/11/02 02:39:45;;;;;;;9.10;1.80;;;14.20;99.90;;;;;;5090888;28;20432;-39
2022/11/02 02:42:29;;;;;;;3.80;1.67;;;14.20;99.90;;;;;;5091539;28;20429;-39
2022/11/02 02:45:08;;;;;;;7.53;2.03;;;14.20;99.90;;;;;;5091028;28;20860;-36
2022/11/02 02:47:36;;;;;;;7.43;1.67;;;14.20;99.90;;;;;;5090844;28;20406;-39
2022/11/02 02:50:08;;;;;;;3.87;1.50;;;14.20;99.90;;;;;;5090443;28;21046;-39
2022/11/02 02:52:36;;;;;;;4.13;1.43;;;14.10;99.90;;;;;;5090634;28;20410;-39
2022/11/02 02:55:04;;;;;;;10.27;2.03;;;14.20;99.90;;;;;;5090848;28;20406;-37
2022/11/02 02:57:33;;;;;;;5.83;1.60;;;14.10;99.90;;;;;;5090785;28;20454;-36
2022/11/02 02:59:59;;;;;;;5.83;2.17;;;14.10;99.90;;;;;;5090422;28;20482;-36
2022/11/02 03:02:32;;;;;;;7.47;1.77;;;14.10;99.90;;;;;;5090561;28;20560;-36
2022/11/02 03:04:58;;;;;;;4.23;1.60;;;14.10;99.90;;;;;;5090753;28;20176;-38
2022/11/02 03:07:28;;;;;;;7.03;1.80;;;14.10;99.90;;;;;;5090585;28;20415;-36
2022/11/02 03:10:20;;;;;;;4.60;1.90;;;14.10;99.90;;;;;;5090444;28;20444;-37
2022/11/02 03:13:28;;;;;;;8.33;2.23;;;14.20;99.90;;;;;;5090035;28;21153;-39
2022/11/02 03:16:00;;;;;;;2.40;1.70;;;14.10;99.90;;;;;;5090436;28;20438;-36
2022/11/02 03:18:52;;;;;;;6.40;1.70;;;14.20;99.90;;;;;;5090062;28;20492;-36
2022/11/02 03:21:26;;;;;;;3.70;1.70;;;14.10;99.90;;;;;;5090338;28;20406;-39
2022/11/02 03:24:08;;;;;;;4.43;1.67;;;14.10;99.90;;;;;;5088777;28;20437;-38
2022/11/02 03:26:52;;;;;;;6.77;2.30;;;14.20;99.90;;;;;;5090452;28;20405;-39
2022/11/02 03:29:44;;;;;;;8.17;2.30;;;14.10;99.90;;;;;;5089934;28;20479;-36
2022/11/02 03:32:16;;;;;;;4.60;1.50;;;14.20;99.90;;;;;;5088785;28;20675;-36
2022/11/02 03:34:48;;;;;;;5.53;1.90;;;14.10;99.90;;;;;;5089898;28;20410;-37
2022/11/02 03:37:21;;;;;;;6.93;3.03;;;14.10;99.90;;;;;;5090199;28;20454;-37
2022/11/02 03:39:53;;;;;;;6.17;2.30;;;14.00;99.90;;;;;;5089629;28;20986;-39
2022/11/02 03:42:24;;;;;;;5.23;1.87;;;14.00;99.90;;;;;;5088662;28;21274;-38
2022/11/02 03:45:13;;;;;;;8.50;2.27;;;14.00;99.90;;;;;;5089834;28;20422;-39
2022/11/02 03:47:43;;;;;;;10.40;2.43;;;14.00;99.90;;;;;;5090005;28;20410;-38
2022/11/02 03:50:11;;;;;;;4.10;1.53;;;14.00;99.90;;;;;;5089724;28;20564;-38
2022/11/02 03:52:40;;;;;;;5.70;1.70;;;14.00;99.90;;;;;;5089770;28;20414;-38
2022/11/02 03:55:08;;;;;;;5.23;2.30;;;14.00;99.90;;;;;;5090087;28;20727;-38
2022/11/02 03:57:43;;;;;;;4.77;1.77;;;14.00;99.90;;;;;;5089929;28;20579;-38
2022/11/02 04:00:12;;;;;;;5.97;1.80;;;14.00;99.90;;;;;;5089599;28;20402;-38
2022/11/02 04:02:41;;;;;;;5.30;1.97;;;13.90;99.90;;;;;;5089541;28;20440;-39
2022/11/02 04:05:07;;;;;;;11.53;1.97;;;13.90;99.90;;;;;;5088256;28;20406;-39
2022/11/02 04:08:19;;;;;;;8.80;1.63;;;13.90;99.90;;;;;;5089970;28;20789;-39
2022/11/02 04:10:25;;;;;;;5.83;2.33;;;13.90;99.90;;;;;;5089225;28;20837;-39
2022/11/02 04:15:34;;;;;;;5.93;2.40;;;13.90;99.90;;;;;;5089615;28;20189;-39
2022/11/02 04:20:49;;;;;;;6.00;2.20;;;13.80;99.90;;;;;;5089581;28;20206;-38
2022/11/02 04:25:59;;;;;;;7.37;1.93;;;13.90;99.90;;;;;;5089455;28;20422;-38
2022/11/02 04:28:25;;;;;;;4.30;1.90;;;13.80;99.90;;;;;;5089171;28;20777;-39
2022/11/02 04:30:50;;;;;;;7.87;2.20;;;13.80;99.90;;;;;;5089658;28;20184;-38
2022/11/02 04:33:31;;;;;;;9.30;2.50;;;13.80;99.90;;;;;;5087895;28;20188;-38
2022/11/02 04:36:05;;;;;;;4.23;1.90;;;13.80;99.90;;;;;;5088796;28;20548;-39
2022/11/02 04:38:40;;;;;;;6.13;1.93;;;13.70;99.90;;;;;;5087574;28;20750;-38
2022/11/02 04:43:53;;;;;;;5.43;2.30;;;13.80;99.90;;;;;;5088985;28;20410;-39
2022/11/02 04:46:19;;;;;;;6.40;2.10;;;13.80;99.90;;;;;;5089657;28;20444;-39
2022/11/02 04:48:45;;;;;;;5.17;1.60;;;13.70;99.90;;;;;;5088805;28;20410;-39
2022/11/02 04:51:11;;;;;;;4.80;1.80;;;13.70;99.90;;;;;;5088541;28;20418;-38
2022/11/02 04:53:36;;;;;;;5.90;1.40;;;13.70;99.90;;;;;;5089149;28;20414;-38
2022/11/02 04:56:02;;;;;;;10.60;1.87;;;13.70;99.90;;;;;;5089564;28;20200;-39
2022/11/02 04:58:28;;;;;;;3.40;1.60;;;13.70;99.90;;;;;;5088958;28;20176;-38
2022/11/02 05:00:53;;;;;;;4.17;1.47;;;13.70;99.90;;;;;;5092512;28;20188;-38
2022/11/02 05:03:19;;;;;;;6.07;1.50;;;13.70;99.90;;;;;;5092693;28;20168;-38
2022/11/02 05:05:44;;;;;;;5.37;2.30;;;13.70;99.90;;;;;;5092954;28;20236;-38
2022/11/02 05:08:10;;;;;;;5.07;1.60;;;13.70;99.90;;;;;;5092998;28;20188;-38
2022/11/02 05:10:36;;;;;;;4.03;1.83;;;13.70;99.90;;;;;;5092677;28;20192;-38
2022/11/02 05:13:01;;;;;;;3.50;1.60;;;13.70;99.90;;;;;;5092651;28;20176;-39
2022/11/02 05:15:27;;;;;;;6.23;1.83;;;13.70;99.90;;;;;;5092716;28;20287;-38
2022/11/02 05:17:53;;;;;;;6.53;1.60;;;13.70;99.90;;;;;;5091204;28;20189;-39
2022/11/02 05:20:18;;;;;;;9.10;2.00;;;13.60;99.90;;;;;;5092450;28;20221;-39
2022/11/02 05:22:44;;;;;;;2.57;1.30;;;13.60;99.90;;;;;;5092406;28;20180;-38
2022/11/02 05:25:10;;;;;;;7.43;1.63;;;13.60;99.90;;;;;;5092704;28;20181;-39
2022/11/02 05:27:36;;;;;;;5.83;1.90;;;13.60;99.90;;;;;;5091345;28;20180;-39
2022/11/02 05:30:03;;;;;;;4.63;1.40;;;13.60;99.90;;;;;;5092267;28;20269;-39
2022/11/02 05:32:29;;;;;;;8.53;1.50;;;13.60;99.90;;;;;;5089352;28;20544;-39
2022/11/02 05:34:55;;;;;;;7.80;1.83;;;13.60;99.90;;;;;;5092400;28;20526;-39
2022/11/02 05:37:21;;;;;;;5.90;2.40;;;13.60;99.90;;;;;;5092251;28;20470;-38
2022/11/02 05:39:46;;;;;;;6.50;2.10;;;13.70;99.90;;;;;;5092125;28;20184;-39
2022/11/02 05:42:12;;;;;;;5.37;1.80;;;13.60;99.90;;;;;;5088829;28;20192;-38
2022/11/02 05:44:37;;;;;;;4.40;1.50;;;13.70;99.90;;;;;;5091366;28;20196;-38
2022/11/02 05:47:03;;;;;;;6.80;1.77;;;13.70;99.90;;;;;;5091460;28;20192;-38
2022/11/02 05:49:29;;;;;;;5.77;1.63;;;13.70;99.90;;;;;;5083100;28;20200;-39
2022/11/02 05:51:55;;;;;;;6.70;2.27;;;13.70;99.90;;;;;;5091957;28;20180;-38
2022/11/02 05:54:20;;;;;;;5.93;1.80;;;13.70;99.90;;;;;;5090154;28;20276;-39
2022/11/02 05:56:46;;;;;;;6.00;2.87;;;13.60;99.90;;;;;;5091802;28;20273;-38
2022/11/02 05:59:12;;;;;;;7.77;1.40;;;13.60;99.90;;;;;;5091543;28;20720;-38
2022/11/02 06:01:38;;;;;;;8.93;2.53;;;13.60;99.90;;;;;;5091937;28;20263;-39
2022/11/02 06:04:04;;;;;;;4.17;1.30;;;13.60;99.90;;;;;;5091286;28;20537;-39
2022/11/02 06:06:30;;;;;;;5.67;1.60;;;13.60;99.90;;;;;;5090669;28;20648;-39
2022/11/02 06:08:55;;;;;;;8.20;2.13;;;13.60;99.90;;;;;;5091179;28;20506;-38
2022/11/02 06:11:21;;;;;;;5.23;1.83;;;13.60;99.90;;;;;;5090551;28;20442;-38
2022/11/02 06:13:50;;;;;;;4.90;2.00;;;13.60;99.90;;;;;;5091331;28;20238;-38
2022/11/02 06:16:16;;;;;;;6.40;1.67;;;13.60;99.90;;;;;;5091286;28;20805;-38
2022/11/02 06:18:42;;;;;;;7.90;1.60;;;13.60;99.90;;;;;;5091195;28;21090;-38
2022/11/02 06:21:08;;;;;;;3.57;1.33;;;13.60;99.90;;;;;;5091432;28;20552;-38
2022/11/02 06:23:34;;;;;;;7.97;2.17;;;13.50;99.90;;;;;;5091295;28;20531;-39
2022/11/02 06:26:00;;;;;;;7.90;1.57;;;13.50;99.90;;;;;;5095493;28;20457;-39
2022/11/02 06:28:27;;;;;;;6.60;1.70;;;13.50;99.90;;;;;;5103420;28;20491;-38
2022/11/02 06:30:53;;;;;;;6.47;2.03;;;13.50;99.90;;;;;;5085087;28;20480;-38
2022/11/02 06:33:20;;;;;;;8.30;2.27;;;13.50;99.90;;;;;;5085907;28;20475;-38
2022/11/02 06:35:47;;;;;;;6.73;2.50;;;13.50;99.90;;;;;;5069720;28;20655;-38
2022/11/02 06:38:13;;;;;;;9.90;1.57;;;13.50;99.90;;;;;;5070857;28;20491;-38
2022/11/02 06:40:39;;;;;;;6.67;1.60;;;13.50;99.90;;;;;;5070764;28;20510;-38
2022/11/02 06:43:04;;;;;;;7.33;2.17;;;13.50;99.90;;;;;;5085193;28;20216;-38
2022/11/02 06:45:30;;;;;;;5.70;1.63;;;13.50;99.90;;;;;;5090832;28;20571;-38
2022/11/02 06:47:56;;;;;;;11.10;1.57;;;13.50;99.90;;;;;;5090994;28;20275;-38
2022/11/02 06:50:23;;;;;;;6.07;2.03;;;13.50;99.90;;;;;;5093302;28;20736;-38
2022/11/02 06:52:49;;;;;;;7.80;1.80;;;13.40;99.90;;;;;;5110874;27;20183;-38
2022/11/02 06:55:16;;;;;;;8.37;1.40;;;13.50;99.90;;;;;;5111335;28;20512;-39
2022/11/02 06:57:42;;;;;;;5.57;1.60;;;13.50;99.90;;;;;;5111289;28;20544;-38
2022/11/02 07:00:11;;;;;;;3.57;1.53;;;13.50;99.90;;;;;;5110543;27;20428;-38
2022/11/02 07:02:38;;;;;;;5.17;2.03;;;13.40;99.90;;;;;;5110676;28;20834;-38
2022/11/02 07:05:04;;;;;;;4.60;1.00;;;13.40;99.90;;;;;;5100001;28;20925;-38
2022/11/02 07:07:29;;;;;;;7.30;1.43;;;13.40;99.90;;;;;;5082468;28;20491;-38
2022/11/02 07:09:55;;;;;;;5.60;1.10;;;13.50;99.90;;;;;;5085040;28;20781;-38
2022/11/02 07:12:21;;;;;;;8.03;1.90;;;13.50;99.90;;;;;;5088764;28;20189;-38
2022/11/02 07:14:46;;;;;;;5.80;1.60;;;13.50;99.90;;;;;;5088860;28;20216;-38
2022/11/02 07:17:12;;;;;;;6.73;2.07;;;13.50;99.90;;;;;;5089378;28;20212;-38
2022/11/02 07:19:38;;;;;;;7.20;2.80;;;13.50;99.90;;;;;;5091989;28;20187;-38
2022/11/02 07:22:03;;;;;;;7.53;2.10;;;13.50;99.90;;;;;;5097688;28;20181;-38
2022/11/02 07:24:29;;;;;;;6.47;1.67;;;13.50;99.90;;;;;;5098369;28;20172;-38
2022/11/02 07:26:54;;;;;;;2.90;1.13;;;13.40;99.90;;;;;;5100153;28;20199;-38
2022/11/02 07:29:20;;;;;;;5.77;1.50;;;13.50;99.90;;;;;;5097056;28;20717;-39
2022/11/02 07:31:46;;;;;;;6.53;1.73;;;13.40;99.90;;;;;;5098521;28;20278;-38
2022/11/02 07:34:12;;;;;;;5.80;1.80;;;13.50;99.90;;;;;;5091573;28;20296;-39
2022/11/02 07:36:38;;;;;;;5.77;2.20;;;13.50;99.90;;;;;;5089930;28;20462;-39
2022/11/02 07:39:06;;;;;;;4.90;1.97;;;13.50;99.90;;;;;;5089684;28;20456;-38
2022/11/02 07:41:32;;;;;;;5.00;1.40;;;13.50;99.90;;;;;;5090061;28;20172;-38
2022/11/02 07:43:57;;;;;;;8.77;1.80;;;13.60;99.90;;;;;;5089659;28;20422;-38
2022/11/02 07:46:23;;;;;;;9.70;1.73;;;13.50;99.90;;;;;;5090118;28;20563;-39
2022/11/02 07:48:49;;;;;;;9.00;1.90;;;13.60;99.90;;;;;;5089476;28;20712;-38
2022/11/02 07:51:14;;;;;;;6.60;1.90;;;13.60;99.90;;;;;;5093477;28;20218;-38
2022/11/02 07:53:40;;;;;;;5.63;1.53;;;13.50;99.90;;;;;;5098216;28;20518;-38
2022/11/02 07:56:06;;;;;;;7.40;2.70;;;13.60;99.90;;;;;;5088786;28;20216;-38
2022/11/02 07:58:32;;;;;;;4.87;1.60;;;13.60;99.90;;;;;;5102683;28;20193;-39
2022/11/02 08:00:58;;;;;;;5.23;1.87;;;13.60;99.90;;;;;;5100541;28;20414;-38
2022/11/02 08:03:24;;;;;;;7.20;1.73;;;13.60;99.90;;;;;;5087223;28;20208;-38
2022/11/02 08:05:50;;;;;;;5.63;2.20;;;13.60;99.90;;;;;;5077000;28;20524;-38
2022/11/02 08:08:18;;;;;;;5.80;1.80;;;13.60;99.90;;;;;;5085229;28;20764;-38
2022/11/02 08:10:46;;;;;;;4.77;2.10;;;13.60;99.90;;;;;;5089039;28;20430;-38
2022/11/02 08:13:14;;;;;;;7.20;2.10;;;13.60;99.90;;;;;;5089462;28;20425;-38
2022/11/02 08:15:40;;;;;;;6.00;1.70;;;13.60;99.90;;;;;;5089015;28;20419;-38
2022/11/02 08:18:15;;;;;;;7.10;2.10;;;13.60;99.90;;;;;;5089432;28;20418;-39
2022/11/02 08:20:41;;;;;;;9.63;1.30;;;13.70;99.90;;;;;;5087972;28;20188;-39
2022/11/02 08:23:08;;;;;;;5.40;1.60;;;13.90;99.90;;;;;;5089344;28;20790;-39
2022/11/02 08:25:34;;;;;;;7.87;1.50;;;14.10;99.90;;;;;;5089130;28;20512;-38
2022/11/02 08:28:01;;;;;;;8.07;1.67;;;14.40;99.90;;;;;;5088243;28;20454;-38
2022/11/02 08:30:28;;;;;;;7.73;2.00;;;14.60;99.90;;;;;;5089213;28;20750;-38
2022/11/02 08:32:54;;;;;;;4.80;1.87;;;14.90;99.90;;;;;;5107379;28;20853;-38
2022/11/02 08:35:20;;;;;;;6.67;1.83;;;15.20;99.90;;;;;;5112506;28;20430;-38
2022/11/02 08:37:54;;;;;;;5.50;1.53;;;15.40;99.90;;;;;;5112288;28;20486;-38
2022/11/02 08:40:20;;;;;;;5.70;1.60;;;15.60;99.90;;;;;;5112955;28;20183;-38
2022/11/02 08:42:46;;;;;;;14.63;1.63;;;15.50;99.90;;;;;;5106236;28;21157;-38
2022/11/02 08:45:11;;;;;;;5.60;1.97;;;15.40;99.90;;;;;;5093641;28;20184;-39
2022/11/02 08:47:41;;;;;;;7.83;1.63;;;15.30;99.90;;;;;;5091629;28;20214;-38
2022/11/02 08:50:10;;;;;;;6.40;2.13;;;15.00;99.90;;;;;;5098297;28;20208;-39
2022/11/02 08:52:37;;;;;;;4.07;1.40;;;14.90;99.90;;;;;;5101133;27;20434;-39
2022/11/02 08:55:03;;;;;;;4.83;1.40;;;14.80;99.90;;;;;;5109554;28;20475;-38
2022/11/02 08:57:29;;;;;;;4.87;1.73;;;14.70;99.90;;;;;;5108325;28;20457;-39
2022/11/02 08:59:55;;;;;;;8.07;1.60;;;14.70;99.90;;;;;;5105355;28;20424;-38
2022/11/02 09:02:20;;;;;;;5.93;2.00;;;14.60;99.90;;;;;;5101616;28;20258;-38
2022/11/02 09:04:46;;;;;;;8.70;2.17;;;14.70;99.90;;;;;;5105625;28;20187;-38
2022/11/02 09:07:12;;;;;;;6.60;1.90;;;14.70;99.90;;;;;;5089953;28;20215;-39
2022/11/02 09:09:37;;;;;;;4.90;1.70;;;14.60;99.90;;;;;;5100075;28;20192;-39
2022/11/02 09:12:03;;;;;;;6.07;2.03;;;14.60;99.90;;;;;;5092632;28;20192;-38
2022/11/02 09:14:29;;;;;;;5.83;1.70;;;14.60;99.90;;;;;;5092617;28;20212;-38
2022/11/02 09:16:55;;;;;;;7.47;1.67;;;14.60;99.90;;;;;;5108836;28;20496;-38
2022/11/02 09:19:20;;;;;;;5.13;1.57;;;14.60;99.90;;;;;;5112688;27;20190;-39
2022/11/02 09:21:48;;;;;;;7.67;1.60;;;14.50;99.90;;;;;;5112757;28;20187;-38
2022/11/02 09:24:14;;;;;;;7.30;1.90;;;14.50;99.90;;;;;;5108781;28;20184;-38
2022/11/02 09:26:40;;;;;;;10.27;1.90;;;14.50;99.90;;;;;;5092323;28;20491;-38
2022/11/02 09:29:05;;;;;;;4.10;1.60;;;14.40;99.90;;;;;;5092015;28;20180;-39
2022/11/02 09:31:31;;;;;;;8.67;1.70;;;14.50;99.90;;;;;;5092622;28;20189;-38
2022/11/02 09:33:57;;;;;;;5.10;1.40;;;14.60;99.90;;;;;;5091020;28;20177;-38
2022/11/02 09:36:22;;;;;;;8.33;1.57;;;14.80;99.90;;;;;;5092134;28;20208;-39
2022/11/02 09:38:48;;;;;;;4.50;1.63;;;15.00;99.90;;;;;;5091867;28;20181;-39
2022/11/02 09:41:24;;;;;;;4.87;2.17;;;15.10;99.90;;;;;;5092473;28;20196;-39
2022/11/02 09:44:05;;;;;;;10.70;2.23;;;15.30;99.90;;;;;;5092003;28;20856;-39
2022/11/02 09:46:37;;;;;;;6.07;1.50;;;15.30;99.90;;;;;;5090452;28;20426;-39
2022/11/02 09:49:10;;;;;;;5.40;1.83;;;15.40;99.90;;;;;;5091825;28;20890;-38
2022/11/02 09:51:45;;;;;;;9.53;2.20;;;15.40;99.90;;;;;;5092130;28;20873;-39
2022/11/02 09:54:24;;;;;;;7.50;2.50;;;15.50;99.90;;;;;;5091916;28;20522;-38
2022/11/02 09:56:54;;;;;;;8.03;1.97;;;15.40;99.90;;;;;;5091615;28;20550;-38
2022/11/02 09:59:25;;;;;;;4.87;1.93;;;15.40;99.90;;;;;;5089891;28;20963;-38
2022/11/02 10:02:27;;;;;;;6.93;1.70;;;15.40;99.90;;;;;;5091668;28;20787;-39
2022/11/02 10:05:05;;;;;;;5.57;2.00;;;15.30;99.90;;;;;;5091630;28;20410;-38
2022/11/02 10:08:02;;;;;;;7.17;2.10;;;15.40;99.90;;;;;;5082069;28;20441;-38
2022/11/02 10:10:51;;;;;;;5.47;2.20;;;15.50;99.90;;;;;;5088625;28;20422;-39
2022/11/02 10:13:41;;;;;;;6.83;2.40;;;15.50;99.90;;;;;;5087939;28;20430;-38
2022/11/02 10:16:14;;;;;;;8.53;1.87;;;15.40;99.90;;;;;;5091318;28;20458;-39
2022/11/02 10:18:41;;;;;;;5.37;2.37;;;15.30;99.90;;;;;;5090910;28;20410;-39
2022/11/02 10:21:20;;;;;;;5.27;2.20;;;15.30;99.90;;;;;;5091720;28;20418;-38
2022/11/02 10:23:53;;;;;;;7.40;1.87;;;15.20;99.90;;;;;;5091058;28;20403;-39
2022/11/02 10:26:46;;;;;;;4.93;1.90;;;15.30;99.90;;;;;;5069649;28;20518;-39
2022/11/02 10:29:20;;;;;;;5.97;1.90;;;15.30;99.90;;;;;;5082627;28;20435;-38
2022/11/02 10:31:47;;;;;;;5.13;1.77;;;15.30;99.90;;;;;;5071017;28;20411;-38
2022/11/02 10:34:27;;;;;;;7.93;2.10;;;15.30;99.90;;;;;;5069810;28;20431;-39
2022/11/02 10:37:06;;;;;;;8.70;2.00;;;15.20;99.90;;;;;;5070517;28;20455;-39
2022/11/02 10:39:39;;;;;;;6.63;2.10;;;15.20;99.90;;;;;;5069288;28;20897;-38
2022/11/02 10:42:08;;;;;;;6.53;1.60;;;15.30;99.90;;;;;;5069512;28;20407;-40
2022/11/02 10:44:54;;;;;;;2.90;1.50;;;15.30;99.90;;;;;;5070476;28;20739;-38
2022/11/02 10:47:45;;;;;;;5.37;1.90;;;15.30;99.90;;;;;;5070270;28;20462;-39
2022/11/02 10:50:47;;;;;;;4.10;1.40;;;15.20;99.90;;;;;;5070297;28;20411;-38
2022/11/02 10:53:16;;;;;;;5.80;1.37;;;15.20;99.90;;;;;;5070263;28;20538;-39
2022/11/02 10:56:04;;;;;;;2.80;1.30;;;15.10;99.90;;;;;;5070061;28;20416;-39
2022/11/02 10:58:32;;;;;;;3.73;1.50;;;15.10;99.90;;;;;;5069225;28;20498;-39
2022/11/02 11:01:10;;;;;;;4.00;1.40;;;15.10;99.90;;;;;;5070339;28;20542;-39
2022/11/02 11:03:57;;;;;;;6.00;1.50;;;15.10;99.90;;;;;;5069953;28;21166;-39
2022/11/02 11:06:44;;;;;;;5.93;1.90;;;15.20;99.90;;;;;;5070410;28;20464;-39
2022/11/02 11:09:50;;;;;;;7.70;1.73;;;15.30;99.90;;;;;;5074352;28;20439;-39
2022/11/02 11:12:39;;;;;;;6.20;1.60;;;15.20;99.90;;;;;;5085967;28;20425;-38
2022/11/02 11:15:06;;;;;;;7.50;1.70;;;15.30;99.90;;;;;;5090386;28;20479;-38
2022/11/02 11:17:37;;;;;;;3.47;1.50;;;15.30;99.90;;;;;;5090337;28;20548;-38
2022/11/02 11:20:15;;;;;;;6.83;2.13;;;15.40;99.70;;;;;;5090107;28;20406;-39
2022/11/02 11:22:41;;;;;;;5.90;1.93;;;15.40;99.90;;;;;;5089775;28;20407;-39
2022/11/02 11:25:12;;;;;;;6.60;1.70;;;15.40;99.90;;;;;;5090470;28;20475;-38
2022/11/02 11:27:53;;;;;;;4.10;1.97;;;15.40;99.90;;;;;;5089958;28;20173;-38
2022/11/02 11:30:37;;;;;;;6.27;1.40;;;15.50;99.90;;;;;;5088659;28;20414;-39
2022/11/02 11:33:05;;;;;;;8.97;1.70;;;15.50;98.80;;;;;;5088587;28;20422;-39
2022/11/02 11:35:37;;;;;;;8.50;2.00;;;15.50;99.10;;;;;;5088933;28;20418;-38
2022/11/02 11:38:09;;;;;;;4.33;2.03;;;15.50;99.30;;;;;;5090009;28;20764;-38
2022/11/02 11:40:38;;;;;;;4.53;1.73;;;15.50;99.00;;;;;;5089798;28;20410;-38
2022/11/02 11:43:10;;;;;;;2.93;1.23;;;15.60;98.70;;;;;;5089747;28;20423;-39
2022/11/02 11:45:36;;;;;;;3.07;1.70;;;15.80;98.50;;;;;;5089721;28;20448;-39
2022/11/02 11:48:23;;;;;;;3.30;1.17;;;16.00;98.20;;;;;;5090166;28;20414;-38
2022/11/02 11:50:49;;;;;;;17.30;1.73;;;16.20;98.10;;;;;;5089801;28;20492;-38
2022/11/02 11:53:25;;;;;;;4.90;1.53;;;16.30;97.50;;;;;;5089667;28;20414;-39
2022/11/02 11:55:52;;;;;;;5.03;1.60;;;16.50;97.50;;;;;;5089598;28;20424;-38
2022/11/02 11:58:21;;;;;;;4.97;1.83;;;16.50;97.90;;;;;;5089756;28;20414;-38
2022/11/02 12:01:13;;;;;;;3.70;1.40;;;16.60;97.00;;;;;;5089706;28;20487;-38
2022/11/02 12:03:56;;;;;;;4.87;1.80;;;16.70;96.50;;;;;;5089610;28;20410;-39
2022/11/02 12:06:44;;;;;;;4.27;1.30;;;16.80;96.80;;;;;;5088563;28;20491;-38
2022/11/02 12:09:10;;;;;;;4.07;1.50;;;16.80;96.40;;;;;;5091535;28;21019;-38
2022/11/02 12:11:47;;;;;;;4.60;1.20;;;16.80;95.30;;;;;;5094074;28;20414;-39
2022/11/02 12:14:40;;;;;;;4.80;1.50;;;16.80;96.10;;;;;;5094003;28;20178;-39
2022/11/02 12:17:26;;;;;;;4.53;1.30;;;16.80;95.90;;;;;;5094009;28;20462;-39
2022/11/02 12:20:16;;;;;;;3.70;1.43;;;16.90;95.90;;;;;;5093657;28;20425;-39
2022/11/02 12:23:07;;;;;;;6.77;1.57;;;17.00;95.20;;;;;;5093587;28;20505;-38
2022/11/02 12:25:43;;;;;;;3.33;1.23;;;17.00;95.70;;;;;;5093869;28;20414;-39
2022/11/02 12:28:24;;;;;;;7.07;1.30;;;17.10;95.70;;;;;;5093908;28;20784;-39
2022/11/02 12:30:57;;;;;;;4.97;1.87;;;17.20;95.80;;;;;;5093760;28;20398;-38
2022/11/02 12:33:37;;;;;;;3.53;1.00;;;17.10;95.00;;;;;;5092423;28;20812;-39
2022/11/02 12:36:24;;;;;;;4.10;1.30;;;17.20;95.60;;;;;;5093615;28;20446;-38
2022/11/02 12:39:07;;;;;;;6.33;1.80;;;17.10;95.50;;;;;;5093116;28;20402;-39
2022/11/02 12:41:50;;;;;;;3.87;1.40;;;17.00;95.50;;;;;;5093594;28;20471;-39
2022/11/02 12:44:33;;;;;;;6.27;2.90;;;16.90;95.80;;;;;;5092942;28;21259;-39
2022/11/02 12:47:33;;;;;;;8.43;2.30;;;16.90;95.90;;;;;;5092588;28;20410;-38
2022/11/02 12:50:32;;;;;;;7.40;1.63;;;17.00;95.90;;;;;;5075110;28;20481;-38
2022/11/02 12:52:58;;;;;;;4.50;1.30;;;17.00;95.90;;;;;;5091343;28;20417;-39
2022/11/02 12:55:29;;;;;;;5.13;1.80;;;16.90;95.40;;;;;;5092297;28;20463;-38
2022/11/02 12:58:02;;;;;;;6.43;1.87;;;17.00;96.30;;;;;;5091690;28;20470;-38
2022/11/02 13:00:31;;;;;;;5.20;1.83;;;17.00;95.80;;;;;;5091737;28;20418;-38
2022/11/02 13:03:03;;;;;;;5.30;1.40;;;17.00;95.80;;;;;;5092861;28;20419;-39
2022/11/02 13:05:36;;;;;;;10.83;2.10;;;16.90;95.80;;;;;;5093092;28;20433;-39
2022/11/02 13:08:08;;;;;;;8.23;1.67;;;16.90;95.80;;;;;;5092084;28;20411;-39
2022/11/02 13:10:41;;;;;;;6.27;1.30;;;16.80;95.80;;;;;;5091352;28;20904;-39
2022/11/02 13:13:13;;;;;;;5.90;1.60;;;16.80;96.30;;;;;;5092492;28;20426;-39
2022/11/02 13:15:41;;;;;;;10.00;2.07;;;16.70;96.60;;;;;;5092925;28;20460;-38